logo
Search for airport 
image banner adimage banner adimage banner ad
image banner ad

LKJR - Jindrichuv Hradec - Nemocnice

Located in Jindrichuv Hradec, Czech Republic

ICAO - , IATA -

Data provided by Airmate  

General information

Coordinates: N49°8'21" E15°0'21"
Elevation is 1620 feet MSL.
 
View others Airports in South Bohemian Region

Operational data

Special qualification required
Current time UTC:
Current local time:
Weather at : - ( 0 km )
METAR: KTZR 171847Z 20019G31KT 10SM BKN040 BKN048 OVC090 25/17 A2977
View NOTAMs / SUP AIP / TFR affecting this airport [VIEW]
Communications frequencies: [VIEW]

Runways:

Airport contact information

Address: Jindrichuv Hradec Czech Republic

Satellite view of LKJR